首页
METAR-TAF:

METAR-TAF

机场 :

安曼, 约旦

安曼民航機場

纬度: 31-59N, 经度: 035-59E, 海拔: 767米

当前天气观测

该预报发布于6分钟前的18:00 UTC
风速5节,风向
温度 23°C
湿度 15%
气压 1012 hPa
能見度: 5000

METAR: OJAM 241800Z 08005KT 5000 HZ NSC 23/M05 Q1012 NOSIG

时间: 21:06 (18:06 UTC)

预报

该预报发布于1小时和6分钟前的17:00 UTC
预报有效从24日的 18点(UTC)到 25日的 24点(UTC)
风速10节,风向
能見度: 5000
成为
从 24日的 20点(UTC)到 24日的 22点(UTC)
少量云层高于3000英尺
散云层高于10000英尺
几率 40% :
短暂存在
从 25日的 03点(UTC)到 25日的 09点(UTC)
能見度: 3000
散云层高于3000英尺
散云层高于8000英尺
小阵雨, 浮尘
短暂存在
从 25日的 09点(UTC)到 25日的 18点(UTC)
少量云层高于3000英尺, 积雨云.
多云层高于3000英尺, 塔状积云.
多云层高于8000英尺
雷暴, 雨

TAF: OJAM 241700Z 2418/2524 09010KT 5000 HZ NSC BECMG 2420/2422 FEW030 SCT100 PROB40 TEMPO 2503/2509 3000 -SHRA DU SCT030 SCT080 TEMPO 2509/2518 TSRA FEW030CB BKN030TCU BKN080

超过4000个机场的气象观测和天气预报(METAR&TAF报告)。

可查询的气象台以黄色和红色小点在地图上表示。

将鼠标移到小点上方,可查看气象台名称。

然后点击查看天气观测和预报。

如需切换地图:点击带黑十字的绿色按钮放大地图;点击带横线的绿色按钮缩小地图;或者点击绿色箭头查看邻近地区的地图。


METAR-TAF: